createdAt,value
2022-09-23T00:00:25.574Z,6.06
2022-09-23T00:20:25.555Z,5.9
2022-09-23T00:40:25.586Z,5.84
2022-09-23T01:00:25.492Z,5.85
2022-09-23T01:20:25.460Z,6.04
2022-09-23T02:00:25.402Z,5.92
2022-09-23T02:20:25.370Z,5.83
2022-09-23T02:40:25.361Z,5.76
2022-09-23T03:00:25.318Z,5.78
2022-09-23T03:20:25.274Z,5.68
2022-09-23T03:40:25.310Z,5.64
2022-09-23T04:00:25.241Z,5.63
2022-09-23T04:20:25.187Z,5.32
2022-09-23T04:40:25.183Z,5.15
2022-09-23T05:00:25.142Z,5.08
2022-09-23T05:20:25.103Z,4.9
2022-09-23T05:40:25.078Z,4.74
2022-09-23T06:20:25.011Z,5.93
2022-09-23T06:40:25.041Z,6.83
2022-09-23T07:00:25.005Z,8.56
2022-09-23T07:20:24.968Z,10.53
2022-09-23T07:40:24.950Z,12.08
2022-09-23T08:00:24.847Z,13.37
2022-09-23T08:20:24.804Z,14.5
2022-09-23T08:40:24.791Z,15.13
2022-09-23T09:00:24.721Z,15.31
2022-09-23T09:20:24.694Z,15.9
2022-09-23T09:40:24.711Z,16.55
2022-09-23T10:00:24.551Z,17.21
2022-09-23T10:20:24.511Z,17.39
2022-09-23T10:40:24.480Z,17.18
2022-09-23T11:00:24.438Z,17.67
2022-09-23T11:20:24.408Z,18.27
2022-09-23T11:40:24.515Z,18.91
2022-09-23T12:00:24.339Z,19.43
2022-09-23T12:20:24.291Z,19.91
2022-09-23T13:00:24.216Z,19.2
2022-09-23T13:20:24.183Z,19.18
2022-09-23T14:00:24.100Z,19.04
2022-09-23T14:20:24.054Z,19.07
2022-09-23T14:40:24.055Z,18.68
2022-09-23T15:00:23.984Z,18.47
2022-09-23T15:20:23.942Z,17.91
2022-09-23T16:00:23.862Z,17.42
2022-09-23T16:20:23.841Z,17.13
2022-09-23T16:40:23.821Z,16.81
2022-09-23T17:00:23.738Z,16.38
2022-09-23T17:20:23.717Z,15.63
2022-09-23T17:40:23.700Z,15.11
2022-09-23T18:20:23.595Z,13.57
2022-09-23T19:20:23.481Z,12.67
2022-09-23T19:40:23.495Z,12.5
2022-09-23T20:20:23.379Z,12.26
2022-09-23T20:40:23.371Z,12.21
2022-09-23T21:00:23.284Z,12.18
2022-09-23T21:20:23.257Z,12.09
2022-09-23T21:40:23.274Z,11.98
2022-09-23T23:00:23.076Z,11.74
2022-09-23T23:40:23.083Z,11.74
